CheckWX is a tool to help pilots better visualize weather data.  It is not intended as a substitute for an official pre-flight weather briefing.

08:12:49 UTC

KCID METAR
The Eastern Iowa Airport
Cedar Rapids, Iowa, USA
Current

21 mins ago

KCID 230752Z AUTO 32016KT 10SM OVC009 09/08 A2997 RMK AO2 SLP145 T00890078 $
Observed
Apr-23 @ 07:52 UTC
Wind
  • 320° at 16 KTS
Visibility
10 SM
Flight Rules
IFR
Cloud Levels
  • Overcast at 900' AGL
Temperature
C / 48°F
Dewpoint
C / 46°F
Humidity
94%
Altimeter
29.97" Hg
Pressure
1014.92 hPa
Previous

1 hour ago

KCID 230652Z AUTO 30014G22KT 10SM OVC007 09/08 A2996 RMK AO2 SLP144 T00890083 $
Observed
Apr-23 @ 06:52 UTC
Wind
  • 300° at 14 KTS
  • Gusting to 22 KTS
Visibility
10 SM
Flight Rules
IFR
Cloud Levels
  • Overcast at 700' AGL
Temperature
C / 48°F
Dewpoint
C / 46°F
Humidity
94%
Altimeter
29.96" Hg
Pressure
1014.52 hPa
Previous

2 hours ago

KCID 230552Z AUTO 30015KT 8SM OVC007 09/09 A2996 RMK AO2 PK WND 31026/0517 SLP141 T00890089 10178 20089 402610000 53008 $
Observed
Apr-23 @ 05:52 UTC
Wind
  • 300° at 15 KTS
Visibility
8 SM
Flight Rules
IFR
Cloud Levels
  • Overcast at 700' AGL
Temperature
C / 48°F
Dewpoint
C / 48°F
Humidity
100%
Altimeter
29.96" Hg
Pressure
1014.52 hPa